Time;durP1;ratioP1;P1;durP2;ratioP2;P2;SDS_P1;SDS_P2;PMS_P1;PMS_P2;Temp;Humidity;BMP_temperature;BMP_pressure;BME280_temperature;BME280_humidity;BME280_pressure;Samples;Min_cycle;Max_cycle;Signal;HPM_P1;HPM_P2
2023/04/10 00:02:21;;;;;;;16.57;13.30;;;4.30;1.00;;;;;;5061075;28;20857;-61
2023/04/10 00:04:49;;;;;;;17.47;13.13;;;4.40;1.00;;;;;;5060344;28;20496;-59
2023/04/10 00:07:16;;;;;;;15.50;13.60;;;4.30;1.00;;;;;;5060514;28;20458;-61
2023/04/10 00:09:44;;;;;;;16.97;13.50;;;4.30;1.00;;;;;;5060749;28;20952;-61
2023/04/10 00:12:11;;;;;;;14.13;11.43;;;4.30;4.60;;;;;;5060617;28;20445;-61
2023/04/10 00:14:40;;;;;;;18.17;14.50;;;4.40;1.00;;;;;;5060621;28;20990;-61
2023/04/10 00:17:07;;;;;;;18.53;14.27;;;4.40;29.30;;;;;;5060220;28;20469;-61
2023/04/10 00:19:35;;;;;;;16.77;13.17;;;4.40;1.00;;;;;;5060333;28;20437;-59
2023/04/10 00:22:02;;;;;;;16.13;13.20;;;4.30;1.00;;;;;;5060289;28;20469;-61
2023/04/10 00:24:29;;;;;;;16.20;13.20;;;4.30;1.00;;;;;;5060365;28;20543;-60
2023/04/10 00:26:57;;;;;;;17.33;13.03;;;4.30;1.00;;;;;;5059499;28;20585;-61
2023/04/10 00:29:26;;;;;;;17.70;13.50;;;4.20;1.00;;;;;;5055927;28;20432;-61
2023/04/10 00:31:55;;;;;;;17.50;14.57;;;4.30;1.00;;;;;;5059560;28;20484;-61
2023/04/10 00:34:22;;;;;;;18.33;15.33;;;4.30;1.00;;;;;;5060409;28;20858;-61
2023/04/10 00:36:49;;;;;;;18.13;14.80;;;4.40;1.00;;;;;;5060070;28;20556;-61
2023/04/10 00:39:16;;;;;;;18.87;15.10;;;4.40;1.00;;;;;;5060281;28;20753;-61
2023/04/10 00:41:43;;;;;;;20.23;15.07;;;4.30;1.00;;;;;;5060047;28;20472;-58
2023/04/10 00:44:11;;;;;;;19.10;14.97;;;4.30;1.00;;;;;;5059461;28;20490;-60
2023/04/10 00:46:39;;;;;;;23.70;17.00;;;4.30;1.00;;;;;;5059848;28;20552;-61
2023/04/10 00:49:09;;;;;;;17.80;14.33;;;4.30;1.00;;;;;;5059892;28;20463;-61
2023/04/10 00:51:37;;;;;;;20.37;15.23;;;4.30;1.00;;;;;;5060470;28;20875;-61
2023/04/10 00:54:05;;;;;;;17.13;14.27;;;4.30;1.00;;;;;;5059153;28;20799;-61
2023/04/10 00:56:33;;;;;;;17.27;14.00;;;4.30;1.00;;;;;;5054893;28;20462;-61
2023/04/10 00:59:01;;;;;;;21.70;15.70;;;4.40;1.00;;;;;;5058331;28;20899;-61
2023/04/10 01:01:28;;;;;;;16.10;14.20;;;4.40;1.00;;;;;;5055614;28;20433;-61
2023/04/10 01:03:56;;;;;;;19.40;15.57;;;4.30;1.00;;;;;;5058499;28;20875;-60
2023/04/10 01:06:42;;;;;;;19.30;14.90;;;4.20;1.00;;;;;;5057220;28;20873;-61
2023/04/10 01:09:20;;;;;;;19.47;16.00;;;4.20;1.00;;;;;;5055723;28;20460;-59
2023/04/10 01:11:55;;;;;;;18.70;16.07;;;4.20;1.00;;;;;;5054989;28;20541;-61
2023/04/10 01:14:31;;;;;;;16.07;14.40;;;4.20;1.00;;;;;;5058111;28;20527;-61
2023/04/10 01:17:05;;;;;;;20.77;16.30;;;4.20;1.00;;;;;;5057916;28;20462;-59
2023/04/10 01:19:59;;;;;;;18.13;15.20;;;4.20;1.00;;;;;;5059704;28;20465;-61
2023/04/10 01:22:34;;;;;;;19.47;15.83;;;4.20;1.00;;;;;;5057731;28;20462;-57
2023/04/10 01:25:17;;;;;;;21.83;15.90;;;4.20;1.00;;;;;;5057947;28;20760;-60
2023/04/10 01:27:59;;;;;;;19.00;14.67;;;4.30;1.00;;;;;;5057168;28;20496;-60
2023/04/10 01:30:30;;;;;;;21.60;17.27;;;4.20;1.00;;;;;;5056643;28;20482;-61
2023/04/10 01:33:01;;;;;;;21.40;15.00;;;4.30;1.00;;;;;;5057393;28;20546;-61
2023/04/10 01:35:30;;;;;;;18.63;15.30;;;4.20;1.00;;;;;;5057813;28;20451;-61
2023/04/10 01:38:00;;;;;;;18.23;14.47;;;4.20;1.00;;;;;;5057148;28;20465;-61
2023/04/10 01:40:28;;;;;;;18.90;14.83;;;4.30;1.00;;;;;;5056995;28;20462;-61
2023/04/10 01:42:57;;;;;;;16.33;14.43;;;4.30;1.00;;;;;;5056690;28;20465;-60
2023/04/10 01:45:28;;;;;;;20.37;15.70;;;4.30;1.00;;;;;;5057376;28;20482;-59
2023/04/10 01:47:56;;;;;;;21.30;14.80;;;4.40;1.00;;;;;;5056977;28;20733;-61
2023/04/10 01:50:23;;;;;;;19.50;15.97;;;4.30;1.00;;;;;;5056904;28;20466;-61
2023/04/10 01:52:52;;;;;;;20.00;16.27;;;4.40;1.00;;;;;;5057050;28;20467;-60
2023/04/10 01:55:20;;;;;;;18.57;15.67;;;4.40;1.00;;;;;;5054411;28;20957;-61
2023/04/10 01:57:48;;;;;;;18.40;16.40;;;4.40;1.00;;;;;;5057435;28;20545;-60
2023/04/10 02:00:16;;;;;;;18.90;14.17;;;4.50;1.00;;;;;;5056948;28;20503;-59
2023/04/10 02:02:45;;;;;;;19.10;14.70;;;4.60;1.00;;;;;;5057817;28;20441;-61
2023/04/10 02:05:12;;;;;;;21.47;16.07;;;4.60;1.00;;;;;;5057435;28;20493;-59
2023/04/10 02:07:45;;;;;;;19.50;16.03;;;4.60;1.00;;;;;;5057121;28;20451;-60
2023/04/10 02:10:17;;;;;;;18.93;14.17;;;4.60;1.00;;;;;;5055494;28;20455;-60
2023/04/10 02:12:52;;;;;;;16.90;13.67;;;4.70;1.00;;;;;;5054645;28;20467;-61
2023/04/10 02:15:21;;;;;;;16.30;13.30;;;4.80;1.00;;;;;;5055867;28;20462;-60
2023/04/10 02:17:52;;;;;;;16.07;12.70;;;5.00;1.00;;;;;;5054818;28;20907;-60
2023/04/10 02:20:20;;;;;;;15.23;12.43;;;5.20;1.00;;;;;;5055497;28;20466;-60
2023/04/10 02:22:47;;;;;;;14.90;12.60;;;5.30;1.00;;;;;;5055427;28;20549;-60
2023/04/10 02:25:15;;;;;;;14.57;12.90;;;5.40;1.00;;;;;;5056409;28;20591;-61
2023/04/10 02:27:42;;;;;;;15.57;12.30;;;5.50;99.90;;;;;;5054440;28;20450;-59
2023/04/10 02:30:09;;;;;;;16.20;11.93;;;5.60;99.90;;;;;;5055972;28;20552;-59
2023/04/10 02:32:37;;;;;;;17.30;12.50;;;5.70;99.90;;;;;;5056633;28;20425;-60
2023/04/10 02:35:06;;;;;;;15.57;10.97;;;5.80;99.90;;;;;;5056908;28;20436;-61
2023/04/10 02:37:34;;;;;;;17.40;12.77;;;5.80;99.90;;;;;;5057616;28;20466;-60
2023/04/10 02:40:01;;;;;;;13.80;11.83;;;5.90;99.90;;;;;;5057253;28;20437;-60
2023/04/10 02:42:29;;;;;;;15.43;12.17;;;6.00;99.90;;;;;;5056049;28;20495;-59
2023/04/10 02:44:56;;;;;;;15.13;11.57;;;6.00;99.90;;;;;;5057498;28;20781;-58
2023/04/10 02:47:23;;;;;;;14.10;11.70;;;6.10;99.90;;;;;;5056346;28;20469;-61
2023/04/10 02:49:51;;;;;;;12.60;11.10;;;6.10;99.90;;;;;;5056943;28;20473;-61
2023/04/10 02:52:19;;;;;;;14.33;12.03;;;6.20;99.90;;;;;;5056986;28;20462;-61
2023/04/10 02:54:47;;;;;;;12.97;10.90;;;6.20;99.90;;;;;;5057401;28;20462;-61
2023/04/10 02:57:14;;;;;;;12.47;10.77;;;6.20;99.90;;;;;;5057673;28;20473;-59
2023/04/10 02:59:41;;;;;;;13.20;11.63;;;6.30;99.90;;;;;;5056707;28;20474;-58
2023/04/10 03:02:08;;;;;;;11.87;10.20;;;6.30;99.90;;;;;;5055966;28;20887;-58
2023/04/10 03:04:35;;;;;;;13.30;11.00;;;6.30;99.90;;;;;;5056989;28;20466;-61
2023/04/10 03:07:03;;;;;;;12.87;10.47;;;6.30;99.90;;;;;;5055968;28;20474;-59
2023/04/10 03:09:31;;;;;;;12.43;11.13;;;6.30;99.90;;;;;;5057753;28;20505;-60
2023/04/10 03:11:58;;;;;;;12.33;10.57;;;6.30;99.90;;;;;;5057025;28;20469;-60
2023/04/10 03:14:26;;;;;;;12.83;11.30;;;6.20;99.90;;;;;;5057164;28;20509;-60
2023/04/10 03:16:53;;;;;;;12.50;11.20;;;6.20;99.90;;;;;;5057397;28;20902;-60
2023/04/10 03:19:20;;;;;;;13.47;11.70;;;6.20;99.90;;;;;;5057253;28;20465;-59
2023/04/10 03:21:47;;;;;;;15.00;11.77;;;6.10;99.90;;;;;;5057243;28;20871;-60
2023/04/10 03:24:15;;;;;;;11.97;10.73;;;6.10;99.90;;;;;;5056711;28;20469;-60
2023/04/10 03:26:43;;;;;;;13.00;9.87;;;6.00;99.90;;;;;;5057037;28;20493;-60
2023/04/10 03:29:10;;;;;;;12.87;10.67;;;6.00;99.90;;;;;;5056770;28;20466;-61
2023/04/10 03:31:38;;;;;;;13.57;10.40;;;6.10;99.90;;;;;;5056572;28;20492;-60
2023/04/10 03:34:05;;;;;;;11.13;9.80;;;6.20;99.90;;;;;;5055157;28;20464;-61
2023/04/10 03:36:32;;;;;;;13.70;11.23;;;6.30;99.90;;;;;;5056654;28;20457;-61
2023/04/10 03:38:59;;;;;;;13.07;10.40;;;6.30;99.90;;;;;;5057284;28;20489;-57
2023/04/10 03:41:26;;;;;;;10.70;9.60;;;6.40;99.90;;;;;;5055416;28;20501;-58
2023/04/10 03:43:55;;;;;;;11.37;9.50;;;6.50;99.90;;;;;;5056842;28;20443;-60
2023/04/10 03:46:22;;;;;;;15.43;10.07;;;6.50;99.90;;;;;;5054213;28;20585;-61
2023/04/10 03:48:51;;;;;;;11.67;10.37;;;6.50;99.90;;;;;;5055733;28;20437;-59
2023/04/10 03:51:18;;;;;;;10.93;9.83;;;6.50;99.90;;;;;;5055637;28;20812;-58
2023/04/10 03:53:46;;;;;;;11.93;9.93;;;6.50;99.90;;;;;;5056397;28;20465;-60
2023/04/10 03:56:13;;;;;;;11.83;9.83;;;6.70;99.90;;;;;;5056821;28;20458;-60
2023/04/10 03:58:40;;;;;;;11.37;9.77;;;6.70;99.90;;;;;;5056579;28;20465;-60
2023/04/10 04:01:08;;;;;;;10.63;9.37;;;6.80;99.90;;;;;;5055993;28;20465;-59
2023/04/10 04:03:35;;;;;;;10.23;9.23;;;6.80;99.90;;;;;;5056342;28;20801;-61
2023/04/10 04:06:03;;;;;;;11.97;9.93;;;6.70;99.90;;;;;;5055274;28;20490;-58
2023/04/10 04:08:30;;;;;;;11.20;9.73;;;6.70;99.90;;;;;;5056830;28;20855;-57
2023/04/10 04:10:57;;;;;;;11.10;9.23;;;6.70;99.90;;;;;;5056193;28;20941;-59
2023/04/10 04:13:24;;;;;;;16.53;10.80;;;6.70;99.90;;;;;;5056154;28;20454;-60
2023/04/10 04:15:51;;;;;;;9.77;8.43;;;6.80;99.90;;;;;;5056623;28;20535;-60
2023/04/10 04:18:20;;;;;;;11.80;10.30;;;6.80;99.90;;;;;;5055721;28;20545;-61
2023/04/10 04:20:47;;;;;;;11.00;9.40;;;6.80;99.90;;;;;;5056360;28;20469;-58
2023/04/10 04:23:14;;;;;;;10.67;9.57;;;6.80;99.90;;;;;;5056255;28;20437;-60
2023/04/10 04:25:42;;;;;;;11.37;9.77;;;6.70;99.90;;;;;;5056909;28;20596;-60
2023/04/10 04:28:10;;;;;;;11.87;9.93;;;6.60;99.90;;;;;;5055494;28;20473;-59
2023/04/10 04:30:37;;;;;;;10.80;9.03;;;6.50;99.90;;;;;;5056466;28;20498;-61
2023/04/10 04:33:04;;;;;;;12.20;9.93;;;6.60;99.90;;;;;;5055886;28;20458;-59
2023/04/10 04:35:33;;;;;;;12.23;10.80;;;6.70;99.90;;;;;;5055900;28;20460;-61
2023/04/10 04:38:00;;;;;;;11.40;9.10;;;6.70;99.90;;;;;;5055971;28;20468;-57
2023/04/10 04:40:27;;;;;;;11.23;9.90;;;6.70;99.90;;;;;;5054678;28;20471;-60
2023/04/10 04:42:54;;;;;;;11.50;10.30;;;6.60;99.90;;;;;;5059812;28;20462;-58
2023/04/10 04:45:22;;;;;;;11.00;9.90;;;6.60;99.90;;;;;;5057995;28;20474;-59
2023/04/10 04:47:49;;;;;;;11.30;9.80;;;6.60;99.90;;;;;;5059088;28;20462;-61
2023/04/10 04:50:16;;;;;;;11.73;8.93;;;6.60;99.90;;;;;;5060000;28;20745;-59
2023/04/10 04:52:44;;;;;;;11.00;9.80;;;6.50;99.90;;;;;;5059138;28;20528;-57
2023/04/10 04:55:12;;;;;;;12.30;9.60;;;6.40;99.90;;;;;;5059256;28;20883;-55
2023/04/10 04:57:39;;;;;;;12.23;9.77;;;6.40;99.90;;;;;;5058195;28;20461;-60
2023/04/10 05:00:07;;;;;;;9.40;8.23;;;6.40;99.90;;;;;;5057450;28;20528;-60
2023/04/10 05:02:34;;;;;;;11.80;9.80;;;6.40;99.90;;;;;;5057569;28;20552;-61
2023/04/10 05:05:02;;;;;;;10.73;9.63;;;6.40;99.90;;;;;;5054517;28;20475;-60
2023/04/10 05:07:29;;;;;;;11.60;9.80;;;6.50;99.90;;;;;;5058176;28;20494;-61
2023/04/10 05:09:57;;;;;;;10.57;9.33;;;6.60;99.90;;;;;;5058265;28;20458;-60
2023/04/10 05:12:25;;;;;;;11.53;10.00;;;6.80;99.90;;;;;;5055749;28;20768;-61
2023/04/10 05:14:52;;;;;;;11.50;10.30;;;7.00;99.90;;;;;;5058294;28;20894;-61
2023/04/10 05:17:19;;;;;;;10.90;8.77;;;7.10;99.90;;;;;;5057892;28;20458;-61
2023/04/10 05:19:46;;;;;;;11.10;9.13;;;7.20;99.90;;;;;;5058568;28;20757;-61
2023/04/10 05:22:13;;;;;;;11.70;9.30;;;7.30;99.90;;;;;;5059060;28;20470;-60
2023/04/10 05:24:40;;;;;;;10.13;8.93;;;7.40;99.90;;;;;;5059414;28;20867;-59
2023/04/10 05:27:09;;;;;;;10.60;8.97;;;7.40;99.90;;;;;;5058697;28;20486;-60
2023/04/10 05:29:36;;;;;;;8.60;7.70;;;7.50;99.90;;;;;;5057985;28;20482;-61
2023/04/10 05:32:03;;;;;;;9.70;8.43;;;7.50;99.90;;;;;;5055958;28;20869;-61
2023/04/10 05:34:30;;;;;;;9.93;8.87;;;7.60;99.90;;;;;;5056674;28;20468;-60
2023/04/10 05:36:57;;;;;;;11.50;8.70;;;7.90;99.90;;;;;;5058018;28;20488;-60
2023/04/10 05:39:24;;;;;;;9.80;8.07;;;8.00;99.90;;;;;;5058958;28;20830;-59
2023/04/10 05:41:51;;;;;;;8.50;7.50;;;8.10;99.90;;;;;;5057999;28;20558;-61
2023/04/10 05:44:20;;;;;;;9.37;8.13;;;8.20;99.90;;;;;;5056893;28;20460;-61
2023/04/10 05:46:47;;;;;;;9.80;8.00;;;8.30;99.90;;;;;;5058281;28;20512;-61
2023/04/10 05:49:15;;;;;;;9.70;8.63;;;8.30;99.90;;;;;;5058614;28;20458;-62
2023/04/10 05:51:42;;;;;;;9.07;8.17;;;8.30;99.90;;;;;;5057546;28;20492;-57
2023/04/10 05:54:10;;;;;;;13.30;8.57;;;8.40;99.90;;;;;;5057271;28;20557;-61
2023/04/10 05:56:37;;;;;;;10.50;8.07;;;8.40;99.90;;;;;;5056835;28;20451;-61
2023/04/10 05:59:04;;;;;;;8.87;7.93;;;8.50;99.90;;;;;;5056950;28;20906;-60
2023/04/10 06:01:32;;;;;;;9.73;8.60;;;8.50;99.90;;;;;;5057113;28;20455;-60
2023/04/10 06:03:59;;;;;;;14.37;9.20;;;8.60;99.90;;;;;;5056479;28;20459;-61
2023/04/10 06:06:28;;;;;;;10.90;9.20;;;8.70;99.90;;;;;;5053702;28;20493;-58
2023/04/10 06:08:55;;;;;;;11.03;8.67;;;8.80;99.90;;;;;;5056634;28;20477;-60
2023/04/10 06:11:22;;;;;;;9.50;8.20;;;8.90;99.90;;;;;;5057614;28;20497;-60
2023/04/10 06:13:50;;;;;;;9.70;8.70;;;9.10;99.90;;;;;;5057821;28;20470;-60
2023/04/10 06:16:17;;;;;;;9.83;8.53;;;9.20;99.90;;;;;;5057962;28;20486;-55
2023/04/10 06:18:46;;;;;;;9.63;7.10;;;9.40;99.90;;;;;;5058025;28;20945;-60
2023/04/10 06:21:14;;;;;;;8.90;7.50;;;9.50;99.90;;;;;;5057976;28;20466;-57
2023/04/10 06:23:41;;;;;;;10.07;8.23;;;9.60;99.90;;;;;;5058100;28;20462;-62
2023/04/10 06:26:08;;;;;;;9.60;8.60;;;9.80;99.90;;;;;;5057055;28;20490;-58
2023/04/10 06:28:35;;;;;;;10.27;8.03;;;9.90;99.90;;;;;;5057890;28;20462;-58
2023/04/10 06:31:03;;;;;;;9.40;8.23;;;10.10;99.90;;;;;;5057914;28;20490;-54
2023/04/10 06:33:30;;;;;;;9.40;8.17;;;10.20;99.90;;;;;;5058165;28;20564;-57
2023/04/10 06:35:59;;;;;;;8.50;7.60;;;10.30;99.90;;;;;;5057339;28;20803;-58
2023/04/10 06:38:27;;;;;;;10.50;8.30;;;10.40;99.90;;;;;;5058199;28;20512;-58
2023/04/10 06:40:54;;;;;;;9.07;8.17;;;10.50;99.90;;;;;;5056262;28;20472;-59
2023/04/10 06:43:21;;;;;;;11.40;8.40;;;10.50;99.90;;;;;;5056480;28;20454;-57
2023/04/10 06:45:48;;;;;;;9.53;7.80;;;10.60;99.90;;;;;;5056208;28;20516;-54
2023/04/10 06:48:15;;;;;;;8.97;8.07;;;10.60;99.90;;;;;;5056387;28;20738;-57
2023/04/10 06:50:45;;;;;;;9.30;7.60;;;10.80;99.90;;;;;;5057504;28;20462;-54
2023/04/10 06:53:14;;;;;;;7.03;6.43;;;10.70;99.90;;;;;;5056775;28;20466;-55
2023/04/10 06:55:41;;;;;;;8.53;7.73;;;10.80;99.90;;;;;;5056249;28;20948;-60
2023/04/10 06:58:08;;;;;;;8.77;7.90;;;10.90;99.90;;;;;;5053380;28;20541;-57
2023/04/10 07:00:36;;;;;;;8.67;7.77;;;11.20;99.90;;;;;;5055860;28;20796;-55
2023/04/10 07:03:03;;;;;;;8.20;7.40;;;11.30;99.90;;;;;;5055808;28;20470;-55
2023/04/10 07:05:30;;;;;;;7.93;7.13;;;11.50;99.90;;;;;;5055699;28;20634;-56
2023/04/10 07:07:57;;;;;;;9.47;7.00;;;11.70;99.90;;;;;;5055893;28;20782;-61
2023/04/10 07:10:25;;;;;;;8.50;7.70;;;11.80;99.90;;;;;;5056439;28;20458;-55
2023/04/10 07:12:53;;;;;;;7.33;6.63;;;11.90;99.90;;;;;;5055539;28;20466;-60
2023/04/10 07:15:20;;;;;;;7.30;6.00;;;12.20;99.90;;;;;;5056240;28;20459;-59
2023/04/10 07:17:48;;;;;;;7.80;7.03;;;12.60;99.90;;;;;;5055934;28;20875;-57
2023/04/10 07:20:15;;;;;;;8.20;7.40;;;13.00;99.90;;;;;;5056455;28;20944;-58
2023/04/10 07:22:42;;;;;;;8.50;7.60;;;13.00;99.90;;;;;;5056006;28;20753;-54
2023/04/10 07:25:10;;;;;;;8.00;7.20;;;13.00;99.90;;;;;;5056302;28;20462;-53
2023/04/10 07:27:39;;;;;;;7.30;6.60;;;13.00;99.90;;;;;;5055820;28;20496;-57
2023/04/10 07:30:07;;;;;;;9.00;7.03;;;12.70;99.90;;;;;;5056108;28;20566;-59
2023/04/10 07:32:38;;;;;;;7.50;6.60;;;12.60;99.90;;;;;;5055661;28;20440;-53
2023/04/10 07:35:06;;;;;;;7.57;6.63;;;12.60;99.90;;;;;;5056079;28;20749;-57
2023/04/10 07:37:33;;;;;;;7.07;6.37;;;12.20;99.90;;;;;;5056476;28;20905;-58
2023/04/10 07:40:01;;;;;;;6.60;5.97;;;12.30;99.90;;;;;;5056865;28;20921;-53
2023/04/10 07:42:28;;;;;;;8.07;7.27;;;12.30;99.90;;;;;;5055369;28;20512;-54
2023/04/10 07:44:57;;;;;;;6.30;5.70;;;12.70;99.90;;;;;;5055969;28;20462;-60
2023/04/10 07:47:24;;;;;;;7.17;6.47;;;13.20;99.90;;;;;;5053938;28;20935;-60
2023/04/10 07:49:51;;;;;;;7.10;6.40;;;13.50;99.90;;;;;;5053516;28;20466;-53
2023/04/10 07:52:19;;;;;;;7.63;6.07;;;13.70;99.90;;;;;;5052414;28;20478;-58
2023/04/10 07:54:46;;;;;;;6.23;5.43;;;13.80;99.90;;;;;;5052503;28;20466;-52
2023/04/10 07:57:13;;;;;;;6.20;5.60;;;13.90;99.90;;;;;;5053432;28;20469;-58
2023/04/10 07:59:40;;;;;;;6.67;6.03;;;13.50;99.90;;;;;;5038473;28;20478;-55
2023/04/10 08:02:09;;;;;;;6.13;5.53;;;13.40;99.90;;;;;;5051374;28;20485;-56
2023/04/10 08:04:36;;;;;;;7.07;6.37;;;13.40;99.90;;;;;;5053679;28;20476;-59
2023/04/10 08:07:03;;;;;;;7.00;6.30;;;13.50;99.90;;;;;;5055028;28;20489;-62
2023/04/10 08:09:30;;;;;;;6.20;5.60;;;13.20;99.90;;;;;;5055377;28;20871;-59
2023/04/10 08:11:57;;;;;;;6.03;5.43;;;13.20;99.90;;;;;;5055015;28;20462;-61
2023/04/10 08:14:25;;;;;;;5.93;5.33;;;13.20;99.90;;;;;;5056903;28;20462;-63
2023/04/10 08:16:52;;;;;;;6.30;5.70;;;13.20;99.90;;;;;;5059011;28;20756;-57
2023/04/10 08:19:23;;;;;;;5.40;4.90;;;13.30;99.90;;;;;;5060270;28;20468;-59
2023/04/10 08:21:50;;;;;;;6.40;5.57;;;13.50;99.90;;;;;;5059427;28;20490;-60
2023/04/10 08:24:20;;;;;;;6.90;6.30;;;13.60;99.90;;;;;;5058588;28;20454;-61
2023/04/10 08:26:48;;;;;;;5.93;5.43;;;13.80;99.90;;;;;;5058989;28;20930;-61
2023/04/10 08:29:15;;;;;;;5.90;5.30;;;14.00;99.90;;;;;;5057218;28;20505;-58
2023/04/10 08:31:42;;;;;;;6.10;5.50;;;14.20;99.90;;;;;;5056954;28;20774;-61
2023/04/10 08:34:09;;;;;;;7.90;5.30;;;14.40;99.90;;;;;;5056631;28;20515;-61
2023/04/10 08:36:38;;;;;;;5.47;4.97;;;14.70;99.90;;;;;;5046082;28;20471;-60
2023/04/10 08:39:05;;;;;;;5.50;5.00;;;14.70;99.90;;;;;;5038942;28;20565;-58
2023/04/10 08:41:32;;;;;;;5.10;4.67;;;14.70;99.90;;;;;;5039153;28;20473;-62
2023/04/10 08:44:00;;;;;;;5.20;4.70;;;14.90;99.90;;;;;;5038570;28;20763;-59
2023/04/10 08:46:27;;;;;;;5.20;4.70;;;15.20;99.90;;;;;;5037668;28;20614;-62
2023/04/10 08:49:00;;;;;;;4.87;4.47;;;15.20;99.90;;;;;;5038099;28;20467;-60
2023/04/10 08:51:36;;;;;;;4.90;4.50;;;15.10;99.90;;;;;;5037999;28;20471;-60
2023/04/10 08:54:07;;;;;;;5.50;5.00;;;15.30;99.90;;;;;;5038092;28;20459;-61
2023/04/10 08:56:35;;;;;;;5.80;5.30;;;15.20;99.90;;;;;;5038785;28;20466;-60
2023/04/10 08:59:04;;;;;;;5.90;5.40;;;15.30;99.90;;;;;;5037671;28;20880;-60
2023/04/10 09:01:33;;;;;;;5.67;5.07;;;15.50;99.90;;;;;;5037929;28;20465;-59
2023/04/10 09:04:00;;;;;;;5.27;4.80;;;15.50;99.90;;;;;;5038256;28;20812;-61
2023/04/10 09:06:27;;;;;;;5.37;4.87;;;15.50;99.90;;;;;;5037814;28;20773;-64
2023/04/10 09:08:54;;;;;;;5.23;4.60;;;15.20;99.90;;;;;;5037587;28;20459;-62
2023/04/10 09:11:23;;;;;;;5.33;4.93;;;15.20;99.90;;;;;;5067593;28;20471;-63
2023/04/10 09:13:51;;;;;;;8.23;4.10;;;15.10;99.90;;;;;;5066463;28;20574;-63
2023/04/10 09:16:18;;;;;;;4.83;4.30;;;14.60;99.90;;;;;;5058863;28;20976;-60
2023/04/10 09:18:47;;;;;;;5.13;4.73;;;14.40;99.90;;;;;;5059693;28;20454;-60
2023/04/10 09:21:16;;;;;;;5.27;4.80;;;14.50;99.90;;;;;;5058600;28;20466;-60
2023/04/10 09:23:44;;;;;;;4.90;4.50;;;14.60;99.90;;;;;;5059659;28;20458;-55
2023/04/10 09:26:27;;;;;;;6.00;5.40;;;14.90;99.90;;;;;;5058989;28;20470;-61
2023/04/10 09:29:00;;;;;;;5.57;4.97;;;14.90;99.90;;;;;;5059284;28;20551;-60
2023/04/10 09:31:33;;;;;;;6.00;5.50;;;14.90;99.90;;;;;;5059074;28;20549;-60
2023/04/10 09:34:12;;;;;;;5.10;4.00;;;14.90;99.90;;;;;;5059467;28;20884;-57
2023/04/10 09:36:41;;;;;;;4.83;4.40;;;14.70;99.90;;;;;;5059123;28;20466;-59
2023/04/10 09:39:10;;;;;;;5.27;4.77;;;14.80;99.90;;;;;;5059115;28;20949;-60
2023/04/10 09:41:50;;;;;;;5.53;5.03;;;15.10;99.90;;;;;;5058426;28;20470;-59
2023/04/10 09:44:19;;;;;;;5.07;4.67;;;15.40;99.90;;;;;;5058927;28;20462;-60
2023/04/10 09:46:48;;;;;;;5.30;4.80;;;15.50;99.90;;;;;;5058834;28;20466;-60
2023/04/10 09:49:16;;;;;;;5.60;5.10;;;15.70;99.90;;;;;;5058484;28;20470;-56
2023/04/10 09:51:43;;;;;;;5.07;4.57;;;15.50;99.90;;;;;;5058464;28;20466;-61
2023/04/10 09:54:11;;;;;;;5.03;4.53;;;15.60;99.90;;;;;;5058382;28;20904;-61
2023/04/10 09:56:39;;;;;;;4.80;4.40;;;15.60;99.90;;;;;;5056882;28;20934;-60
2023/04/10 09:59:08;;;;;;;5.37;4.87;;;16.00;99.90;;;;;;5057848;28;20478;-62
2023/04/10 10:01:39;;;;;;;5.90;5.30;;;16.20;99.90;;;;;;5056915;28;20911;-61
2023/04/10 10:04:10;;;;;;;5.40;4.90;;;16.50;99.90;;;;;;5057770;28;20476;-61
2023/04/10 10:06:39;;;;;;;5.27;4.87;;;16.30;99.90;;;;;;5059425;28;20466;-59
2023/04/10 10:09:06;;;;;;;4.97;4.57;;;16.10;99.90;;;;;;5057744;28;20501;-60
2023/04/10 10:11:34;;;;;;;4.60;4.20;;;16.10;99.90;;;;;;5057910;28;20469;-61
2023/04/10 10:14:04;;;;;;;5.30;4.80;;;15.80;99.90;;;;;;5058406;28;20565;-59
2023/04/10 10:16:38;;;;;;;5.00;4.60;;;16.00;99.90;;;;;;5058423;28;20492;-61
2023/04/10 10:19:12;;;;;;;4.90;4.50;;;16.00;99.90;;;;;;5057571;28;20478;-60
2023/04/10 10:21:41;;;;;;;4.83;4.20;;;16.20;99.90;;;;;;5057367;28;20474;-60
2023/04/10 10:24:09;;;;;;;5.03;4.60;;;16.10;99.90;;;;;;5058309;28;20778;-59
2023/04/10 10:26:39;;;;;;;5.20;4.80;;;16.10;99.90;;;;;;5056082;28;20462;-62
2023/04/10 10:29:09;;;;;;;4.87;4.47;;;16.00;99.90;;;;;;5055260;28;20532;-64
2023/04/10 10:31:38;;;;;;;7.83;5.30;;;16.10;99.90;;;;;;5057213;28;20478;-62
2023/04/10 10:34:08;;;;;;;5.97;4.63;;;15.80;99.90;;;;;;5058220;28;20432;-63
2023/04/10 10:36:35;;;;;;;5.40;4.90;;;15.90;99.90;;;;;;5055018;28;20753;-61
2023/04/10 10:39:22;;;;;;;5.40;4.73;;;16.00;99.90;;;;;;5056833;28;20573;-60
2023/04/10 10:41:56;;;;;;;5.00;4.60;;;16.10;99.90;;;;;;5039695;28;20841;-60
2023/04/10 10:44:33;;;;;;;4.73;4.33;;;16.20;99.90;;;;;;5037377;28;20557;-60
2023/04/10 10:47:10;;;;;;;5.03;4.63;;;16.20;99.90;;;;;;5037401;28;20475;-60
2023/04/10 10:49:54;;;;;;;4.97;4.47;;;16.20;99.90;;;;;;5056399;28;20457;-60
2023/04/10 10:52:45;;;;;;;5.53;5.07;;;16.40;99.90;;;;;;5055405;28;20469;-60
2023/04/10 10:55:36;;;;;;;5.57;5.07;;;16.50;99.90;;;;;;5038576;28;20564;-60
2023/04/10 10:58:05;;;;;;;5.87;5.37;;;16.80;99.90;;;;;;5050017;28;20473;-58
2023/04/10 11:01:09;;;;;;;5.50;5.00;;;16.80;99.90;;;;;;5056472;28;20445;-60
2023/04/10 11:03:38;;;;;;;5.60;5.10;;;17.10;99.90;;;;;;5037568;28;20455;-61
2023/04/10 11:06:07;;;;;;;6.10;5.40;;;17.20;99.90;;;;;;5041675;28;20911;-58
2023/04/10 11:08:46;;;;;;;5.33;4.83;;;17.30;99.90;;;;;;5037953;28;20487;-59
2023/04/10 11:11:17;;;;;;;7.30;4.57;;;17.40;99.90;;;;;;5036317;28;20546;-59
2023/04/10 11:14:16;;;;;;;5.20;4.80;;;17.90;99.90;;;;;;5053722;28;20536;-60
2023/04/10 11:16:45;;;;;;;4.97;4.57;;;18.00;99.90;;;;;;5052509;28;20810;-62
2023/04/10 11:19:16;;;;;;;4.97;4.57;;;17.50;99.90;;;;;;5047783;28;20811;-58
2023/04/10 11:22:03;;;;;;;5.43;4.93;;;17.30;99.90;;;;;;5034731;28;20517;-61
2023/04/10 11:24:55;;;;;;;5.50;5.00;;;17.20;99.90;;;;;;5039324;28;20922;-60
2023/04/10 11:27:42;;;;;;;4.73;4.23;;;17.10;99.90;;;;;;5037660;28;20462;-62
2023/04/10 11:30:32;;;;;;;5.33;4.87;;;16.70;99.90;;;;;;5053763;28;20569;-61
2023/04/10 11:33:00;;;;;;;4.10;3.80;;;16.80;99.90;;;;;;5048650;28;20459;-62
2023/04/10 11:35:30;;;;;;;5.37;4.97;;;16.80;99.90;;;;;;5054480;28;20474;-58
2023/04/10 11:38:17;;;;;;;4.60;4.17;;;17.10;99.90;;;;;;5045269;28;20459;-63
2023/04/10 11:40:54;;;;;;;4.80;4.40;;;17.10;99.90;;;;;;5038790;28;20455;-62
2023/04/10 11:43:21;;;;;;;5.10;4.70;;;17.20;99.90;;;;;;5040753;28;20454;-63
2023/04/10 11:45:49;;;;;;;5.00;4.50;;;17.20;99.90;;;;;;5038212;28;20451;-58
2023/04/10 11:48:17;;;;;;;4.80;4.40;;;17.40;99.90;;;;;;5047143;28;20493;-62
2023/04/10 11:50:45;;;;;;;4.50;4.13;;;17.20;99.90;;;;;;5060018;28;20478;-62
2023/04/10 11:53:20;;;;;;;4.50;4.10;;;17.40;99.90;;;;;;5060544;28;20461;-61
2023/04/10 11:55:47;;;;;;;5.20;4.70;;;17.40;99.90;;;;;;5056782;28;20915;-60
2023/04/10 11:58:25;;;;;;;4.80;4.40;;;17.40;99.90;;;;;;5060094;28;20450;-62
2023/04/10 12:01:00;;;;;;;4.80;4.40;;;17.40;99.90;;;;;;5060125;28;20453;-61
2023/04/10 12:03:38;;;;;;;4.50;4.20;;;17.40;99.90;;;;;;5060481;28;20515;-61
2023/04/10 12:06:10;;;;;;;3.70;3.40;;;17.60;99.90;;;;;;5061401;28;20476;-61
2023/04/10 12:08:39;;;;;;;3.90;3.60;;;17.60;99.90;;;;;;5060654;28;20930;-62
2023/04/10 12:11:08;;;;;;;4.00;3.63;;;17.70;99.90;;;;;;5060110;28;20524;-61
2023/04/10 12:13:35;;;;;;;4.40;4.00;;;17.60;99.90;;;;;;5059998;28;20474;-61
2023/04/10 12:16:06;;;;;;;4.57;4.17;;;17.60;99.90;;;;;;5059392;28;20921;-62
2023/04/10 12:18:34;;;;;;;3.27;2.80;;;17.60;99.90;;;;;;5059276;28;20838;-62
2023/04/10 12:21:01;;;;;;;3.50;3.20;;;17.50;99.90;;;;;;5055444;28;20516;-60
2023/04/10 12:23:30;;;;;;;3.80;3.50;;;17.40;99.90;;;;;;5054015;28;20913;-61
2023/04/10 12:26:09;;;;;;;5.80;3.50;;;17.50;99.90;;;;;;5058458;28;20462;-60
2023/04/10 12:28:39;;;;;;;3.70;3.40;;;17.80;99.90;;;;;;5059019;28;20492;-60
2023/04/10 12:31:07;;;;;;;4.23;3.93;;;17.70;99.90;;;;;;5059017;28;20490;-60
2023/04/10 12:33:34;;;;;;;3.77;3.47;;;18.20;99.90;;;;;;5060754;28;20476;-61
2023/04/10 12:36:01;;;;;;;3.10;2.80;;;18.30;99.90;;;;;;5059709;28;20462;-63
2023/04/10 12:38:43;;;;;;;3.20;2.90;;;18.30;99.90;;;;;;5060173;28;20564;-61
2023/04/10 12:41:11;;;;;;;3.20;2.90;;;18.10;99.90;;;;;;5058819;28;20560;-61
2023/04/10 12:43:40;;;;;;;3.70;3.40;;;18.10;99.90;;;;;;5060651;28;20784;-64
2023/04/10 12:46:09;;;;;;;3.13;2.83;;;18.00;99.90;;;;;;5061644;28;20477;-61
2023/04/10 12:48:37;;;;;;;3.30;3.03;;;17.80;99.90;;;;;;5060040;28;20501;-61
2023/04/10 12:51:04;;;;;;;3.40;3.10;;;17.50;99.90;;;;;;5059909;28;20519;-60
2023/04/10 12:53:31;;;;;;;4.50;3.43;;;17.30;99.90;;;;;;5060277;28;20474;-61
2023/04/10 12:56:03;;;;;;;4.17;3.77;;;17.40;99.90;;;;;;5059817;28;20469;-62
2023/04/10 12:58:31;;;;;;;3.70;3.40;;;17.50;99.90;;;;;;5059438;28;20958;-61